sensor_id;sensor_type;location;lat;lon;timestamp;pressure;altitude;pressure_sealevel;temperature;humidity
10881;BME280;5493;48.884;8.338;2023-05-17T00:01:53;100702.78;;;10.14;100.00
10881;BME280;5493;48.884;8.338;2023-05-17T00:04:20;100703.97;;;9.99;100.00
10881;BME280;5493;48.884;8.338;2023-05-17T00:06:47;100709.34;;;9.85;100.00
10881;BME280;5493;48.884;8.338;2023-05-17T00:09:13;100710.19;;;9.79;100.00
10881;BME280;5493;48.884;8.338;2023-05-17T00:11:40;100705.22;;;9.76;100.00
10881;BME280;5493;48.884;8.338;2023-05-17T00:14:06;100701.69;;;9.76;100.00
10881;BME280;5493;48.884;8.338;2023-05-17T00:16:34;100702.47;;;9.70;100.00
10881;BME280;5493;48.884;8.338;2023-05-17T00:19:01;100703.31;;;9.77;100.00
10881;BME280;5493;48.884;8.338;2023-05-17T00:21:27;100704.97;;;9.71;100.00
10881;BME280;5493;48.884;8.338;2023-05-17T00:23:54;100714.31;;;9.75;100.00
10881;BME280;5493;48.884;8.338;2023-05-17T00:26:21;100710.38;;;9.78;100.00
10881;BME280;5493;48.884;8.338;2023-05-17T00:28:47;100710.19;;;10.06;100.00
10881;BME280;5493;48.884;8.338;2023-05-17T00:31:14;100712.69;;;9.94;100.00
10881;BME280;5493;48.884;8.338;2023-05-17T00:33:41;100712.31;;;10.17;100.00
10881;BME280;5493;48.884;8.338;2023-05-17T00:36:08;100716.59;;;9.92;100.00
10881;BME280;5493;48.884;8.338;2023-05-17T00:38:35;100722.22;;;9.83;100.00
10881;BME280;5493;48.884;8.338;2023-05-17T00:41:01;100720.53;;;9.76;100.00
10881;BME280;5493;48.884;8.338;2023-05-17T00:43:28;100717.81;;;9.69;100.00
10881;BME280;5493;48.884;8.338;2023-05-17T00:45:54;100719.47;;;9.77;100.00
10881;BME280;5493;48.884;8.338;2023-05-17T00:48:21;100720.53;;;9.82;100.00
10881;BME280;5493;48.884;8.338;2023-05-17T00:50:51;100725.09;;;9.82;100.00
10881;BME280;5493;48.884;8.338;2023-05-17T00:53:18;100723.00;;;9.77;100.00
10881;BME280;5493;48.884;8.338;2023-05-17T00:55:45;100728.44;;;9.97;100.00
10881;BME280;5493;48.884;8.338;2023-05-17T00:58:12;100730.50;;;9.88;100.00
10881;BME280;5493;48.884;8.338;2023-05-17T01:00:39;100730.91;;;9.85;100.00
10881;BME280;5493;48.884;8.338;2023-05-17T01:03:06;100725.53;;;9.92;100.00
10881;BME280;5493;48.884;8.338;2023-05-17T01:05:32;100724.25;;;9.81;100.00
10881;BME280;5493;48.884;8.338;2023-05-17T01:08:00;100729.28;;;9.91;100.00
10881;BME280;5493;48.884;8.338;2023-05-17T01:10:32;100727.97;;;9.80;100.00
10881;BME280;5493;48.884;8.338;2023-05-17T01:13:04;100738.38;;;9.83;100.00
10881;BME280;5493;48.884;8.338;2023-05-17T01:15:32;100731.31;;;9.76;100.00
10881;BME280;5493;48.884;8.338;2023-05-17T01:18:08;100730.47;;;9.82;100.00
10881;BME280;5493;48.884;8.338;2023-05-17T01:20:36;100739.22;;;9.91;100.00
10881;BME280;5493;48.884;8.338;2023-05-17T01:23:12;100740.00;;;9.78;100.00
10881;BME280;5493;48.884;8.338;2023-05-17T01:25:52;100740.81;;;9.72;100.00
10881;BME280;5493;48.884;8.338;2023-05-17T01:28:22;100744.09;;;9.67;100.00
10881;BME280;5493;48.884;8.338;2023-05-17T01:30:50;100746.13;;;9.59;100.00
10881;BME280;5493;48.884;8.338;2023-05-17T01:33:17;100749.91;;;9.64;100.00
10881;BME280;5493;48.884;8.338;2023-05-17T01:35:44;100754.94;;;9.87;100.00
10881;BME280;5493;48.884;8.338;2023-05-17T01:38:11;100754.72;;;9.88;100.00
10881;BME280;5493;48.884;8.338;2023-05-17T01:40:43;100748.75;;;10.06;100.00
10881;BME280;5493;48.884;8.338;2023-05-17T01:43:16;100758.09;;;10.04;100.00
10881;BME280;5493;48.884;8.338;2023-05-17T01:45:56;100761.19;;;9.94;100.00
10881;BME280;5493;48.884;8.338;2023-05-17T01:48:31;100763.03;;;9.87;100.00
10881;BME280;5493;48.884;8.338;2023-05-17T01:51:00;100763.03;;;10.00;100.00
10881;BME280;5493;48.884;8.338;2023-05-17T01:53:29;100760.59;;;10.12;100.00
10881;BME280;5493;48.884;8.338;2023-05-17T01:56:01;100773.41;;;10.03;100.00
10881;BME280;5493;48.884;8.338;2023-05-17T01:58:29;100771.06;;;9.80;100.00
10881;BME280;5493;48.884;8.338;2023-05-17T02:00:59;100776.50;;;10.00;100.00
10881;BME280;5493;48.884;8.338;2023-05-17T02:03:27;100775.84;;;9.85;100.00
10881;BME280;5493;48.884;8.338;2023-05-17T02:05:54;100774.97;;;9.71;100.00
10881;BME280;5493;48.884;8.338;2023-05-17T02:08:21;100771.19;;;9.59;100.00
10881;BME280;5493;48.884;8.338;2023-05-17T02:10:47;100771.00;;;9.54;100.00
10881;BME280;5493;48.884;8.338;2023-05-17T02:13:14;100774.72;;;9.53;100.00
10881;BME280;5493;48.884;8.338;2023-05-17T02:15:40;100780.72;;;9.55;100.00
10881;BME280;5493;48.884;8.338;2023-05-17T02:18:08;100782.19;;;9.58;100.00
10881;BME280;5493;48.884;8.338;2023-05-17T02:20:35;100779.50;;;9.58;100.00
10881;BME280;5493;48.884;8.338;2023-05-17T02:23:02;100781.13;;;9.59;100.00
10881;BME280;5493;48.884;8.338;2023-05-17T02:25:28;100779.63;;;9.43;100.00
10881;BME280;5493;48.884;8.338;2023-05-17T02:27:55;100778.44;;;9.59;100.00
10881;BME280;5493;48.884;8.338;2023-05-17T02:30:21;100783.81;;;9.52;100.00
10881;BME280;5493;48.884;8.338;2023-05-17T02:32:50;100778.81;;;9.43;100.00
10881;BME280;5493;48.884;8.338;2023-05-17T02:35:18;100791.69;;;9.54;100.00
10881;BME280;5493;48.884;8.338;2023-05-17T02:37:45;100785.50;;;9.60;100.00
10881;BME280;5493;48.884;8.338;2023-05-17T02:40:12;100781.34;;;9.57;100.00
10881;BME280;5493;48.884;8.338;2023-05-17T02:42:38;100786.31;;;9.54;100.00
10881;BME280;5493;48.884;8.338;2023-05-17T02:45:06;100787.38;;;9.66;100.00
10881;BME280;5493;48.884;8.338;2023-05-17T02:47:32;100786.34;;;9.67;100.00
10881;BME280;5493;48.884;8.338;2023-05-17T02:49:59;100782.44;;;9.69;100.00
10881;BME280;5493;48.884;8.338;2023-05-17T02:52:27;100785.56;;;9.73;100.00
10881;BME280;5493;48.884;8.338;2023-05-17T02:54:53;100791.38;;;9.76;100.00
10881;BME280;5493;48.884;8.338;2023-05-17T02:57:20;100794.25;;;9.75;100.00
10881;BME280;5493;48.884;8.338;2023-05-17T02:59:46;100797.78;;;9.75;100.00
10881;BME280;5493;48.884;8.338;2023-05-17T03:02:13;100787.19;;;9.74;100.00
10881;BME280;5493;48.884;8.338;2023-05-17T03:04:39;100789.84;;;9.61;100.00
10881;BME280;5493;48.884;8.338;2023-05-17T03:07:06;100795.00;;;9.56;100.00
10881;BME280;5493;48.884;8.338;2023-05-17T03:09:34;100793.78;;;9.58;100.00
10881;BME280;5493;48.884;8.338;2023-05-17T03:12:01;100798.78;;;9.61;100.00
10881;BME280;5493;48.884;8.338;2023-05-17T03:14:28;100792.72;;;9.53;100.00
10881;BME280;5493;48.884;8.338;2023-05-17T03:16:55;100798.97;;;9.66;100.00
10881;BME280;5493;48.884;8.338;2023-05-17T03:19:21;100793.81;;;9.65;100.00
10881;BME280;5493;48.884;8.338;2023-05-17T03:21:48;100803.50;;;9.59;100.00
10881;BME280;5493;48.884;8.338;2023-05-17T03:24:14;100801.47;;;9.61;100.00
10881;BME280;5493;48.884;8.338;2023-05-17T03:26:42;100801.88;;;9.58;100.00
10881;BME280;5493;48.884;8.338;2023-05-17T03:29:09;100805.78;;;9.56;100.00
10881;BME280;5493;48.884;8.338;2023-05-17T03:31:35;100799.63;;;9.68;100.00
10881;BME280;5493;48.884;8.338;2023-05-17T03:34:02;100803.72;;;9.58;100.00
10881;BME280;5493;48.884;8.338;2023-05-17T03:36:29;100800.19;;;9.57;100.00
10881;BME280;5493;48.884;8.338;2023-05-17T03:38:55;100801.25;;;9.63;100.00
10881;BME280;5493;48.884;8.338;2023-05-17T03:41:22;100807.13;;;9.79;100.00
10881;BME280;5493;48.884;8.338;2023-05-17T03:43:49;100807.56;;;9.89;100.00
10881;BME280;5493;48.884;8.338;2023-05-17T03:46:16;100805.56;;;10.05;100.00
10881;BME280;5493;48.884;8.338;2023-05-17T03:48:42;100808.03;;;10.06;100.00
10881;BME280;5493;48.884;8.338;2023-05-17T03:51:09;100807.22;;;10.12;100.00
10881;BME280;5493;48.884;8.338;2023-05-17T03:53:36;100810.75;;;10.13;100.00
10881;BME280;5493;48.884;8.338;2023-05-17T03:56:05;100807.00;;;10.14;100.00
10881;BME280;5493;48.884;8.338;2023-05-17T03:58:32;100815.38;;;10.25;100.00
10881;BME280;5493;48.884;8.338;2023-05-17T04:01:00;100820.53;;;10.20;100.00
10881;BME280;5493;48.884;8.338;2023-05-17T04:03:26;100821.00;;;10.37;100.00
10881;BME280;5493;48.884;8.338;2023-05-17T04:05:53;100823.16;;;10.14;100.00
10881;BME280;5493;48.884;8.338;2023-05-17T04:08:20;100823.44;;;10.25;100.00
10881;BME280;5493;48.884;8.338;2023-05-17T04:10:46;100827.19;;;10.31;100.00
10881;BME280;5493;48.884;8.338;2023-05-17T04:13:13;100831.53;;;10.32;100.00
10881;BME280;5493;48.884;8.338;2023-05-17T04:15:39;100838.78;;;10.18;100.00
10881;BME280;5493;48.884;8.338;2023-05-17T04:18:07;100844.22;;;10.45;100.00
10881;BME280;5493;48.884;8.338;2023-05-17T04:20:34;100845.00;;;10.32;100.00
10881;BME280;5493;48.884;8.338;2023-05-17T04:23:00;100846.91;;;10.38;100.00
10881;BME280;5493;48.884;8.338;2023-05-17T04:25:27;100846.69;;;10.40;100.00
10881;BME280;5493;48.884;8.338;2023-05-17T04:27:53;100848.78;;;10.38;100.00
10881;BME280;5493;48.884;8.338;2023-05-17T04:30:20;100849.81;;;10.36;100.00
10881;BME280;5493;48.884;8.338;2023-05-17T04:32:48;100854.38;;;10.49;100.00
10881;BME280;5493;48.884;8.338;2023-05-17T04:35:16;100859.34;;;10.39;100.00
10881;BME280;5493;48.884;8.338;2023-05-17T04:37:43;100851.69;;;10.49;100.00
10881;BME280;5493;48.884;8.338;2023-05-17T04:40:10;100861.88;;;10.73;100.00
10881;BME280;5493;48.884;8.338;2023-05-17T04:42:37;100860.44;;;10.77;100.00
10881;BME280;5493;48.884;8.338;2023-05-17T04:45:04;100868.53;;;10.91;100.00
10881;BME280;5493;48.884;8.338;2023-05-17T04:47:31;100869.16;;;10.99;100.00
10881;BME280;5493;48.884;8.338;2023-05-17T04:49:57;100870.19;;;10.85;100.00
10881;BME280;5493;48.884;8.338;2023-05-17T04:52:25;100876.63;;;11.10;100.00
10881;BME280;5493;48.884;8.338;2023-05-17T04:54:51;100874.31;;;11.33;100.00
10881;BME280;5493;48.884;8.338;2023-05-17T04:57:18;100881.97;;;11.56;100.00
10881;BME280;5493;48.884;8.338;2023-05-17T04:59:45;100878.66;;;11.21;100.00
10881;BME280;5493;48.884;8.338;2023-05-17T05:02:12;100883.03;;;11.22;100.00
10881;BME280;5493;48.884;8.338;2023-05-17T05:04:38;100885.72;;;11.29;100.00
10881;BME280;5493;48.884;8.338;2023-05-17T05:07:05;100884.44;;;11.64;100.00
10881;BME280;5493;48.884;8.338;2023-05-17T05:09:33;100885.09;;;11.53;100.00
10881;BME280;5493;48.884;8.338;2023-05-17T05:11:59;100892.97;;;11.74;100.00
10881;BME280;5493;48.884;8.338;2023-05-17T05:14:26;100895.78;;;11.99;100.00
10881;BME280;5493;48.884;8.338;2023-05-17T05:16:52;100893.34;;;12.67;100.00
10881;BME280;5493;48.884;8.338;2023-05-17T05:19:19;100903.38;;;12.60;100.00
10881;BME280;5493;48.884;8.338;2023-05-17T05:21:47;100896.81;;;12.74;100.00
10881;BME280;5493;48.884;8.338;2023-05-17T05:24:14;100898.81;;;13.41;100.00
10881;BME280;5493;48.884;8.338;2023-05-17T05:26:41;100905.97;;;13.04;100.00
10881;BME280;5493;48.884;8.338;2023-05-17T05:29:09;100907.72;;;12.92;100.00
10881;BME280;5493;48.884;8.338;2023-05-17T05:31:35;100904.81;;;12.94;100.00
10881;BME280;5493;48.884;8.338;2023-05-17T05:34:02;100910.78;;;13.02;100.00
10881;BME280;5493;48.884;8.338;2023-05-17T05:36:28;100906.13;;;12.84;100.00
10881;BME280;5493;48.884;8.338;2023-05-17T05:38:55;100915.31;;;13.08;100.00
10881;BME280;5493;48.884;8.338;2023-05-17T05:41:21;100912.34;;;13.84;100.00
10881;BME280;5493;48.884;8.338;2023-05-17T05:43:49;100911.88;;;13.87;100.00
10881;BME280;5493;48.884;8.338;2023-05-17T05:46:16;100907.88;;;13.90;100.00
10881;BME280;5493;48.884;8.338;2023-05-17T05:48:42;100914.50;;;14.12;100.00
10881;BME280;5493;48.884;8.338;2023-05-17T05:51:09;100918.06;;;14.90;100.00
10881;BME280;5493;48.884;8.338;2023-05-17T05:53:37;100923.19;;;14.68;100.00
10881;BME280;5493;48.884;8.338;2023-05-17T05:56:04;100929.34;;;13.91;100.00
10881;BME280;5493;48.884;8.338;2023-05-17T05:58:30;100922.94;;;14.70;100.00
10881;BME280;5493;48.884;8.338;2023-05-17T06:00:58;100934.53;;;14.47;100.00
10881;BME280;5493;48.884;8.338;2023-05-17T06:03:25;100935.44;;;15.01;100.00
10881;BME280;5493;48.884;8.338;2023-05-17T06:05:51;100942.59;;;15.37;100.00
10881;BME280;5493;48.884;8.338;2023-05-17T06:08:18;100944.72;;;15.46;100.00
10881;BME280;5493;48.884;8.338;2023-05-17T06:10:45;100950.88;;;14.89;100.00
10881;BME280;5493;48.884;8.338;2023-05-17T06:13:11;100956.25;;;14.77;100.00
10881;BME280;5493;48.884;8.338;2023-05-17T06:15:39;100945.69;;;14.99;100.00
10881;BME280;5493;48.884;8.338;2023-05-17T06:18:07;100950.09;;;14.70;100.00
10881;BME280;5493;48.884;8.338;2023-05-17T06:20:33;100951.25;;;15.04;100.00
10881;BME280;5493;48.884;8.338;2023-05-17T06:23:00;100953.25;;;15.85;100.00
10881;BME280;5493;48.884;8.338;2023-05-17T06:25:29;100942.78;;;15.23;100.00
10881;BME280;5493;48.884;8.338;2023-05-17T06:27:55;100958.56;;;15.68;100.00
10881;BME280;5493;48.884;8.338;2023-05-17T06:30:22;100945.47;;;15.00;100.00
10881;BME280;5493;48.884;8.338;2023-05-17T06:32:48;100949.75;;;15.19;100.00
10881;BME280;5493;48.884;8.338;2023-05-17T06:35:16;100951.00;;;15.70;100.00
10881;BME280;5493;48.884;8.338;2023-05-17T06:37:43;100953.63;;;15.77;100.00
10881;BME280;5493;48.884;8.338;2023-05-17T06:40:11;100951.38;;;15.09;100.00
10881;BME280;5493;48.884;8.338;2023-05-17T06:42:37;100954.44;;;15.01;100.00
10881;BME280;5493;48.884;8.338;2023-05-17T06:45:06;100955.06;;;15.14;100.00
10881;BME280;5493;48.884;8.338;2023-05-17T06:47:32;100963.50;;;15.36;100.00
10881;BME280;5493;48.884;8.338;2023-05-17T06:49:59;100963.09;;;15.62;100.00
10881;BME280;5493;48.884;8.338;2023-05-17T06:52:27;100963.09;;;14.79;100.00
10881;BME280;5493;48.884;8.338;2023-05-17T06:54:53;100964.75;;;15.10;100.00
10881;BME280;5493;48.884;8.338;2023-05-17T06:57:20;100972.56;;;13.86;100.00
10881;BME280;5493;48.884;8.338;2023-05-17T06:59:46;100969.94;;;13.79;100.00
10881;BME280;5493;48.884;8.338;2023-05-17T07:02:13;100971.66;;;13.74;100.00
10881;BME280;5493;48.884;8.338;2023-05-17T07:04:39;100970.75;;;13.37;100.00
10881;BME280;5493;48.884;8.338;2023-05-17T07:07:06;100971.81;;;13.79;100.00
10881;BME280;5493;48.884;8.338;2023-05-17T07:09:34;100985.81;;;13.51;100.00
10881;BME280;5493;48.884;8.338;2023-05-17T07:12:00;100980.72;;;13.61;100.00
10881;BME280;5493;48.884;8.338;2023-05-17T07:14:27;100989.28;;;13.83;100.00
10881;BME280;5493;48.884;8.338;2023-05-17T07:16:53;100980.88;;;13.91;100.00
10881;BME280;5493;48.884;8.338;2023-05-17T07:19:20;100974.91;;;14.19;100.00
10881;BME280;5493;48.884;8.338;2023-05-17T07:21:47;100984.94;;;13.57;100.00
10881;BME280;5493;48.884;8.338;2023-05-17T07:24:13;100985.97;;;13.81;100.00
10881;BME280;5493;48.884;8.338;2023-05-17T07:26:41;100979.03;;;13.67;100.00
10881;BME280;5493;48.884;8.338;2023-05-17T07:29:08;100987.75;;;13.69;100.00
10881;BME280;5493;48.884;8.338;2023-05-17T07:31:34;100988.09;;;13.54;100.00
10881;BME280;5493;48.884;8.338;2023-05-17T07:34:01;100989.09;;;13.60;100.00
10881;BME280;5493;48.884;8.338;2023-05-17T07:36:27;100997.13;;;13.48;100.00
10881;BME280;5493;48.884;8.338;2023-05-17T07:38:55;100992.63;;;13.04;100.00
10881;BME280;5493;48.884;8.338;2023-05-17T07:41:21;100998.19;;;13.16;100.00
10881;BME280;5493;48.884;8.338;2023-05-17T07:43:49;100994.41;;;13.17;100.00
10881;BME280;5493;48.884;8.338;2023-05-17T07:46:16;100992.38;;;13.12;100.00
10881;BME280;5493;48.884;8.338;2023-05-17T07:48:43;100983.47;;;12.99;100.00
10881;BME280;5493;48.884;8.338;2023-05-17T07:51:09;100990.97;;;13.59;100.00
10881;BME280;5493;48.884;8.338;2023-05-17T07:53:36;100993.13;;;13.94;100.00
10881;BME280;5493;48.884;8.338;2023-05-17T07:56:03;100993.69;;;14.20;100.00
10881;BME280;5493;48.884;8.338;2023-05-17T07:58:29;100992.72;;;14.51;100.00
10881;BME280;5493;48.884;8.338;2023-05-17T08:00:58;100991.91;;;15.10;100.00
10881;BME280;5493;48.884;8.338;2023-05-17T08:03:24;100987.63;;;14.73;100.00
10881;BME280;5493;48.884;8.338;2023-05-17T08:05:52;100988.56;;;14.30;100.00
10881;BME280;5493;48.884;8.338;2023-05-17T08:08:19;100987.81;;;14.23;100.00
10881;BME280;5493;48.884;8.338;2023-05-17T08:10:45;100985.16;;;14.71;100.00
10881;BME280;5493;48.884;8.338;2023-05-17T08:13:12;100992.84;;;15.16;100.00
10881;BME280;5493;48.884;8.338;2023-05-17T08:15:38;100986.47;;;15.52;100.00
10881;BME280;5493;48.884;8.338;2023-05-17T08:18:06;100985.88;;;15.96;100.00
10881;BME280;5493;48.884;8.338;2023-05-17T08:20:33;100991.69;;;15.77;100.00
10881;BME280;5493;48.884;8.338;2023-05-17T08:22:59;100981.97;;;16.15;100.00
10881;BME280;5493;48.884;8.338;2023-05-17T08:25:26;100979.78;;;16.81;100.00
10881;BME280;5493;48.884;8.338;2023-05-17T08:27:52;100977.22;;;16.74;100.00
10881;BME280;5493;48.884;8.338;2023-05-17T08:30:19;100984.16;;;17.10;100.00
10881;BME280;5493;48.884;8.338;2023-05-17T08:32:46;100972.19;;;17.44;100.00
10881;BME280;5493;48.884;8.338;2023-05-17T08:35:14;100975.47;;;17.13;100.00
10881;BME280;5493;48.884;8.338;2023-05-17T08:37:41;100978.78;;;16.87;100.00
10881;BME280;5493;48.884;8.338;2023-05-17T08:40:08;100976.34;;;17.63;98.25
10881;BME280;5493;48.884;8.338;2023-05-17T08:42:35;100969.94;;;18.30;97.46
10881;BME280;5493;48.884;8.338;2023-05-17T08:45:04;100969.31;;;18.44;98.57
10881;BME280;5493;48.884;8.338;2023-05-17T08:47:32;100966.22;;;17.81;98.68
10881;BME280;5493;48.884;8.338;2023-05-17T08:50:01;100961.28;;;17.11;100.00
10881;BME280;5493;48.884;8.338;2023-05-17T08:52:31;100970.00;;;16.68;100.00
10881;BME280;5493;48.884;8.338;2023-05-17T08:54:59;100963.59;;;16.22;100.00
10881;BME280;5493;48.884;8.338;2023-05-17T08:57:30;100969.88;;;16.11;100.00
10881;BME280;5493;48.884;8.338;2023-05-17T08:59:58;100967.19;;;16.00;100.00
10881;BME280;5493;48.884;8.338;2023-05-17T09:02:25;100965.38;;;16.17;100.00
10881;BME280;5493;48.884;8.338;2023-05-17T09:04:53;100967.75;;;16.93;100.00
10881;BME280;5493;48.884;8.338;2023-05-17T09:07:20;100964.34;;;16.86;100.00
10881;BME280;5493;48.884;8.338;2023-05-17T09:09:50;100960.66;;;16.92;100.00
10881;BME280;5493;48.884;8.338;2023-05-17T09:12:18;100963.97;;;16.94;100.00
10881;BME280;5493;48.884;8.338;2023-05-17T09:14:45;100958.91;;;16.86;100.00
10881;BME280;5493;48.884;8.338;2023-05-17T09:17:13;100956.78;;;17.05;100.00
10881;BME280;5493;48.884;8.338;2023-05-17T09:19:42;100957.72;;;17.44;100.00
10881;BME280;5493;48.884;8.338;2023-05-17T09:22:11;100956.22;;;17.03;100.00
10881;BME280;5493;48.884;8.338;2023-05-17T09:24:39;100964.28;;;16.81;100.00
10881;BME280;5493;48.884;8.338;2023-05-17T09:27:07;100965.81;;;16.77;100.00
10881;BME280;5493;48.884;8.338;2023-05-17T09:29:34;100961.25;;;16.94;100.00
10881;BME280;5493;48.884;8.338;2023-05-17T09:32:13;100962.31;;;16.53;100.00
10881;BME280;5493;48.884;8.338;2023-05-17T09:34:41;100965.03;;;16.53;100.00
10881;BME280;5493;48.884;8.338;2023-05-17T09:37:11;100957.25;;;16.57;100.00
10881;BME280;5493;48.884;8.338;2023-05-17T09:39:38;100958.41;;;16.61;100.00
10881;BME280;5493;48.884;8.338;2023-05-17T09:42:06;100963.06;;;16.49;100.00
10881;BME280;5493;48.884;8.338;2023-05-17T09:44:44;100962.91;;;16.04;100.00
10881;BME280;5493;48.884;8.338;2023-05-17T09:47:20;100967.03;;;16.18;100.00
10881;BME280;5493;48.884;8.338;2023-05-17T09:49:47;100970.13;;;16.10;100.00
10881;BME280;5493;48.884;8.338;2023-05-17T09:52:16;100978.25;;;16.33;100.00
10881;BME280;5493;48.884;8.338;2023-05-17T09:54:50;100977.94;;;16.06;100.00
10881;BME280;5493;48.884;8.338;2023-05-17T09:57:19;100979.16;;;15.99;100.00
10881;BME280;5493;48.884;8.338;2023-05-17T09:59:46;100983.28;;;16.13;100.00
10881;BME280;5493;48.884;8.338;2023-05-17T10:02:18;100975.69;;;16.55;100.00
10881;BME280;5493;48.884;8.338;2023-05-17T10:04:45;100978.44;;;16.55;100.00
10881;BME280;5493;48.884;8.338;2023-05-17T10:07:14;100980.78;;;15.88;100.00
10881;BME280;5493;48.884;8.338;2023-05-17T10:09:44;100981.94;;;16.27;100.00
10881;BME280;5493;48.884;8.338;2023-05-17T10:12:13;100976.09;;;16.35;100.00
10881;BME280;5493;48.884;8.338;2023-05-17T10:14:43;100980.44;;;15.85;100.00
10881;BME280;5493;48.884;8.338;2023-05-17T10:17:11;100970.97;;;15.64;100.00
10881;BME280;5493;48.884;8.338;2023-05-17T10:19:38;100969.56;;;15.61;100.00
10881;BME280;5493;48.884;8.338;2023-05-17T10:22:06;100970.28;;;15.57;100.00
10881;BME280;5493;48.884;8.338;2023-05-17T10:24:33;100972.47;;;16.30;100.00
10881;BME280;5493;48.884;8.338;2023-05-17T10:27:01;100978.94;;;15.77;100.00
10881;BME280;5493;48.884;8.338;2023-05-17T10:29:28;100970.50;;;15.67;100.00
10881;BME280;5493;48.884;8.338;2023-05-17T10:32:02;100961.75;;;16.00;100.00
10881;BME280;5493;48.884;8.338;2023-05-17T10:34:29;100966.72;;;16.43;100.00
10881;BME280;5493;48.884;8.338;2023-05-17T10:36:56;100968.75;;;16.59;100.00
10881;BME280;5493;48.884;8.338;2023-05-17T10:39:23;100969.78;;;16.06;100.00
10881;BME280;5493;48.884;8.338;2023-05-17T10:41:51;100969.03;;;16.22;100.00
10881;BME280;5493;48.884;8.338;2023-05-17T10:44:20;100974.38;;;16.17;100.00
10881;BME280;5493;48.884;8.338;2023-05-17T10:46:52;100972.28;;;15.85;100.00
10881;BME280;5493;48.884;8.338;2023-05-17T10:49:23;100969.19;;;15.93;100.00
10881;BME280;5493;48.884;8.338;2023-05-17T10:51:50;100972.06;;;15.98;100.00
10881;BME280;5493;48.884;8.338;2023-05-17T10:54:16;100984.25;;;15.19;100.00
10881;BME280;5493;48.884;8.338;2023-05-17T10:56:47;100985.13;;;14.90;100.00
10881;BME280;5493;48.884;8.338;2023-05-17T10:59:18;100982.16;;;14.91;100.00
10881;BME280;5493;48.884;8.338;2023-05-17T11:02:07;100978.22;;;15.17;100.00
10881;BME280;5493;48.884;8.338;2023-05-17T11:04:36;100978.16;;;14.94;100.00
10881;BME280;5493;48.884;8.338;2023-05-17T11:07:23;100970.34;;;15.39;100.00
10881;BME280;5493;48.884;8.338;2023-05-17T11:09:52;100986.00;;;15.78;100.00
10881;BME280;5493;48.884;8.338;2023-05-17T11:12:34;100980.91;;;16.05;100.00
10881;BME280;5493;48.884;8.338;2023-05-17T11:15:05;100981.13;;;15.92;100.00
10881;BME280;5493;48.884;8.338;2023-05-17T11:17:46;100982.28;;;16.31;100.00
10881;BME280;5493;48.884;8.338;2023-05-17T11:20:31;100971.91;;;16.67;100.00
10881;BME280;5493;48.884;8.338;2023-05-17T11:23:00;100982.22;;;16.02;100.00
10881;BME280;5493;48.884;8.338;2023-05-17T11:25:30;100982.56;;;16.06;100.00
10881;BME280;5493;48.884;8.338;2023-05-17T11:27:57;100975.81;;;16.20;100.00
10881;BME280;5493;48.884;8.338;2023-05-17T11:30:25;100970.56;;;16.30;100.00
10881;BME280;5493;48.884;8.338;2023-05-17T11:32:56;100971.00;;;16.39;100.00
10881;BME280;5493;48.884;8.338;2023-05-17T11:35:25;100971.38;;;16.42;100.00
10881;BME280;5493;48.884;8.338;2023-05-17T11:38:12;100971.53;;;16.64;100.00
10881;BME280;5493;48.884;8.338;2023-05-17T11:40:39;100980.47;;;16.59;100.00
10881;BME280;5493;48.884;8.338;2023-05-17T11:43:13;100967.88;;;16.70;98.56
10881;BME280;5493;48.884;8.338;2023-05-17T11:45:48;100961.50;;;16.93;99.65
10881;BME280;5493;48.884;8.338;2023-05-17T11:48:16;100964.13;;;16.48;98.29
10881;BME280;5493;48.884;8.338;2023-05-17T11:50:43;100970.81;;;16.17;100.00
10881;BME280;5493;48.884;8.338;2023-05-17T11:53:12;100964.28;;;16.30;100.00
10881;BME280;5493;48.884;8.338;2023-05-17T11:55:39;100969.75;;;16.18;100.00
10881;BME280;5493;48.884;8.338;2023-05-17T11:58:07;100961.38;;;16.19;100.00
10881;BME280;5493;48.884;8.338;2023-05-17T12:00:35;100966.84;;;16.48;100.00
10881;BME280;5493;48.884;8.338;2023-05-17T12:03:19;100969.06;;;15.99;100.00
10881;BME280;5493;48.884;8.338;2023-05-17T12:05:47;100967.16;;;16.23;100.00
10881;BME280;5493;48.884;8.338;2023-05-17T12:08:16;100962.56;;;16.12;100.00
10881;BME280;5493;48.884;8.338;2023-05-17T12:10:45;100970.72;;;16.12;100.00
10881;BME280;5493;48.884;8.338;2023-05-17T12:13:11;100963.03;;;16.20;100.00
10881;BME280;5493;48.884;8.338;2023-05-17T12:15:38;100957.69;;;16.25;99.73
10881;BME280;5493;48.884;8.338;2023-05-17T12:18:05;100956.28;;;16.63;95.40
10881;BME280;5493;48.884;8.338;2023-05-17T12:20:31;100958.75;;;16.64;97.85
10881;BME280;5493;48.884;8.338;2023-05-17T12:22:59;100957.28;;;16.45;100.00
10881;BME280;5493;48.884;8.338;2023-05-17T12:25:27;100956.84;;;16.25;97.34
10881;BME280;5493;48.884;8.338;2023-05-17T12:28:11;100954.25;;;16.18;97.65
10881;BME280;5493;48.884;8.338;2023-05-17T12:30:38;100959.38;;;16.03;96.75
10881;BME280;5493;48.884;8.338;2023-05-17T12:33:06;100960.88;;;16.22;94.73
10881;BME280;5493;48.884;8.338;2023-05-17T12:35:33;100960.31;;;16.09;97.26
10881;BME280;5493;48.884;8.338;2023-05-17T12:37:59;100953.13;;;16.43;95.56
10881;BME280;5493;48.884;8.338;2023-05-17T12:40:27;100955.34;;;16.86;96.66
10881;BME280;5493;48.884;8.338;2023-05-17T12:43:00;100949.72;;;16.76;93.09
10881;BME280;5493;48.884;8.338;2023-05-17T12:45:27;100948.97;;;16.52;92.29
10881;BME280;5493;48.884;8.338;2023-05-17T12:47:53;100946.16;;;16.35;93.02
10881;BME280;5493;48.884;8.338;2023-05-17T12:50:24;100948.31;;;16.73;93.96
10881;BME280;5493;48.884;8.338;2023-05-17T12:52:51;100949.38;;;17.34;90.96
10881;BME280;5493;48.884;8.338;2023-05-17T12:55:17;100947.41;;;17.62;94.14
10881;BME280;5493;48.884;8.338;2023-05-17T12:57:49;100944.34;;;17.09;85.22